Milan, Missouri
Current Conditions -  °F | °C
As of 7:55 AM on Monday 24 Nov 2014 (Local Time) from KIRK Reporting Station
Overcast Overcast  
Wind Chill: -9°   Ceiling: 2700
Heat Index: -1°   Visibility: 10mi
Dew Point: -5°   Wind: 23mph
Humidity: 75%   Direction: 290°WNW
Pressure: 29.54"   Gusts: 31mph
Location:  40.2°N, 93.13°W
Report Text: KIRK 241355Z AUTO 29020G27KT 10SM OVC027 M01/M05 A2954 RMK AO2 PK WND 28030/1334 SLP010 T10111050
Loading
Personal Weather Stations






























Interactive Weather Map New forecast layout! Learn more

10-Day Weather Forecast

Advertisements
Track Severe Weather on mobile